sensor_id;sensor_type;location;lat;lon;timestamp;temperature;humidity
1381;DHT22;684;48.342;10.096;2024-02-23T00:01:43;9.70;20.10
1381;DHT22;684;48.342;10.096;2024-02-23T00:04:10;9.70;19.90
1381;DHT22;684;48.342;10.096;2024-02-23T00:06:37;9.70;19.40
1381;DHT22;684;48.342;10.096;2024-02-23T00:09:05;9.70;19.20
1381;DHT22;684;48.342;10.096;2024-02-23T00:11:32;9.60;18.80
1381;DHT22;684;48.342;10.096;2024-02-23T00:13:59;9.60;18.40
1381;DHT22;684;48.342;10.096;2024-02-23T00:16:26;9.50;17.90
1381;DHT22;684;48.342;10.096;2024-02-23T00:18:54;9.50;17.60
1381;DHT22;684;48.342;10.096;2024-02-23T00:21:21;9.50;17.60
1381;DHT22;684;48.342;10.096;2024-02-23T00:23:48;9.40;17.00
1381;DHT22;684;48.342;10.096;2024-02-23T00:26:16;9.40;17.20
1381;DHT22;684;48.342;10.096;2024-02-23T00:28:42;9.30;17.40
1381;DHT22;684;48.342;10.096;2024-02-23T00:31:09;9.30;17.60
1381;DHT22;684;48.342;10.096;2024-02-23T00:33:36;9.30;17.70
1381;DHT22;684;48.342;10.096;2024-02-23T00:36:07;9.30;17.20
1381;DHT22;684;48.342;10.096;2024-02-23T00:38:34;9.20;17.00
1381;DHT22;684;48.342;10.096;2024-02-23T00:41:01;9.20;16.90
1381;DHT22;684;48.342;10.096;2024-02-23T00:43:29;9.20;16.50
1381;DHT22;684;48.342;10.096;2024-02-23T00:45:56;9.20;16.30
1381;DHT22;684;48.342;10.096;2024-02-23T00:48:23;9.10;16.20
1381;DHT22;684;48.342;10.096;2024-02-23T00:50:49;9.10;16.30
1381;DHT22;684;48.342;10.096;2024-02-23T00:53:16;9.10;16.10
1381;DHT22;684;48.342;10.096;2024-02-23T00:55:46;9.00;15.90
1381;DHT22;684;48.342;10.096;2024-02-23T00:58:12;9.00;16.10
1381;DHT22;684;48.342;10.096;2024-02-23T01:00:42;9.00;16.30
1381;DHT22;684;48.342;10.096;2024-02-23T01:03:09;9.00;16.60
1381;DHT22;684;48.342;10.096;2024-02-23T01:05:35;9.00;16.60
1381;DHT22;684;48.342;10.096;2024-02-23T01:08:03;9.00;16.50
1381;DHT22;684;48.342;10.096;2024-02-23T01:10:30;9.00;16.70
1381;DHT22;684;48.342;10.096;2024-02-23T01:12:57;9.00;17.10
1381;DHT22;684;48.342;10.096;2024-02-23T01:15:23;9.00;17.60
1381;DHT22;684;48.342;10.096;2024-02-23T01:17:52;8.90;17.80
1381;DHT22;684;48.342;10.096;2024-02-23T01:20:18;8.80;17.90
1381;DHT22;684;48.342;10.096;2024-02-23T01:22:45;8.70;18.00
1381;DHT22;684;48.342;10.096;2024-02-23T01:25:12;8.60;17.60
1381;DHT22;684;48.342;10.096;2024-02-23T01:27:41;8.60;17.40
1381;DHT22;684;48.342;10.096;2024-02-23T01:30:10;8.40;18.00
1381;DHT22;684;48.342;10.096;2024-02-23T01:32:37;8.40;18.30
1381;DHT22;684;48.342;10.096;2024-02-23T01:35:07;8.30;18.60
1381;DHT22;684;48.342;10.096;2024-02-23T01:37:34;8.20;18.40
1381;DHT22;684;48.342;10.096;2024-02-23T01:40:01;8.10;17.90
1381;DHT22;684;48.342;10.096;2024-02-23T01:42:28;8.00;18.30
1381;DHT22;684;48.342;10.096;2024-02-23T01:44:55;7.90;18.40
1381;DHT22;684;48.342;10.096;2024-02-23T01:47:22;7.80;18.80
1381;DHT22;684;48.342;10.096;2024-02-23T01:49:50;7.70;18.90
1381;DHT22;684;48.342;10.096;2024-02-23T01:52:19;7.60;19.00
1381;DHT22;684;48.342;10.096;2024-02-23T01:54:46;7.50;19.20
1381;DHT22;684;48.342;10.096;2024-02-23T01:57:14;7.50;19.30
1381;DHT22;684;48.342;10.096;2024-02-23T01:59:42;7.50;19.20
1381;DHT22;684;48.342;10.096;2024-02-23T02:02:09;7.40;19.20
1381;DHT22;684;48.342;10.096;2024-02-23T02:04:37;7.40;19.30
1381;DHT22;684;48.342;10.096;2024-02-23T02:07:04;7.30;19.40
1381;DHT22;684;48.342;10.096;2024-02-23T02:09:33;7.30;19.70
1381;DHT22;684;48.342;10.096;2024-02-23T02:11:59;7.30;19.50
1381;DHT22;684;48.342;10.096;2024-02-23T02:14:26;7.30;19.70
1381;DHT22;684;48.342;10.096;2024-02-23T02:16:55;7.30;19.60
1381;DHT22;684;48.342;10.096;2024-02-23T02:19:22;7.30;19.60
1381;DHT22;684;48.342;10.096;2024-02-23T02:21:49;7.30;19.40
1381;DHT22;684;48.342;10.096;2024-02-23T02:24:16;7.30;19.40
1381;DHT22;684;48.342;10.096;2024-02-23T02:26:44;7.30;19.50
1381;DHT22;684;48.342;10.096;2024-02-23T02:29:14;7.20;19.50
1381;DHT22;684;48.342;10.096;2024-02-23T02:31:40;7.20;19.70
1381;DHT22;684;48.342;10.096;2024-02-23T02:34:07;7.20;19.80
1381;DHT22;684;48.342;10.096;2024-02-23T02:36:38;7.20;19.90
1381;DHT22;684;48.342;10.096;2024-02-23T02:39:05;7.20;19.80
1381;DHT22;684;48.342;10.096;2024-02-23T02:41:32;7.20;19.80
1381;DHT22;684;48.342;10.096;2024-02-23T02:44:00;7.20;19.90
1381;DHT22;684;48.342;10.096;2024-02-23T02:46:27;7.20;20.00
1381;DHT22;684;48.342;10.096;2024-02-23T02:48:54;7.20;20.00
1381;DHT22;684;48.342;10.096;2024-02-23T02:51:21;7.20;20.00
1381;DHT22;684;48.342;10.096;2024-02-23T02:53:48;7.20;20.00
1381;DHT22;684;48.342;10.096;2024-02-23T02:56:14;7.10;20.00
1381;DHT22;684;48.342;10.096;2024-02-23T02:58:41;7.20;20.30
1381;DHT22;684;48.342;10.096;2024-02-23T03:01:09;7.10;20.20
1381;DHT22;684;48.342;10.096;2024-02-23T03:03:36;7.10;20.40
1381;DHT22;684;48.342;10.096;2024-02-23T03:06:03;7.10;20.30
1381;DHT22;684;48.342;10.096;2024-02-23T03:08:31;7.10;20.30
1381;DHT22;684;48.342;10.096;2024-02-23T03:10:58;7.10;20.40
1381;DHT22;684;48.342;10.096;2024-02-23T03:13:24;7.10;20.50
1381;DHT22;684;48.342;10.096;2024-02-23T03:15:51;7.10;20.60
1381;DHT22;684;48.342;10.096;2024-02-23T03:18:19;7.10;20.60
1381;DHT22;684;48.342;10.096;2024-02-23T03:20:46;7.00;20.60
1381;DHT22;684;48.342;10.096;2024-02-23T03:23:13;7.00;20.80
1381;DHT22;684;48.342;10.096;2024-02-23T03:25:40;7.00;20.80
1381;DHT22;684;48.342;10.096;2024-02-23T03:28:05;6.90;20.90
1381;DHT22;684;48.342;10.096;2024-02-23T03:30:32;6.90;21.00
1381;DHT22;684;48.342;10.096;2024-02-23T03:32:59;6.90;21.20
1381;DHT22;684;48.342;10.096;2024-02-23T03:35:27;6.90;21.30
1381;DHT22;684;48.342;10.096;2024-02-23T03:37:54;6.90;21.40
1381;DHT22;684;48.342;10.096;2024-02-23T03:40:21;6.90;21.60
1381;DHT22;684;48.342;10.096;2024-02-23T03:42:47;6.90;21.60
1381;DHT22;684;48.342;10.096;2024-02-23T03:45:14;6.80;21.70
1381;DHT22;684;48.342;10.096;2024-02-23T03:47:41;6.90;21.70
1381;DHT22;684;48.342;10.096;2024-02-23T03:50:08;6.80;21.80
1381;DHT22;684;48.342;10.096;2024-02-23T03:52:36;6.80;22.00
1381;DHT22;684;48.342;10.096;2024-02-23T03:55:04;6.80;22.00
1381;DHT22;684;48.342;10.096;2024-02-23T03:57:31;6.80;22.10
1381;DHT22;684;48.342;10.096;2024-02-23T03:59:58;6.80;22.20
1381;DHT22;684;48.342;10.096;2024-02-23T04:02:25;6.80;22.30
1381;DHT22;684;48.342;10.096;2024-02-23T04:04:52;6.80;22.50
1381;DHT22;684;48.342;10.096;2024-02-23T04:07:19;6.80;22.40
1381;DHT22;684;48.342;10.096;2024-02-23T04:09:47;6.70;22.40
1381;DHT22;684;48.342;10.096;2024-02-23T04:12:17;6.70;22.50
1381;DHT22;684;48.342;10.096;2024-02-23T04:14:44;6.70;22.40
1381;DHT22;684;48.342;10.096;2024-02-23T04:17:11;6.70;22.20
1381;DHT22;684;48.342;10.096;2024-02-23T04:19:38;6.70;22.10
1381;DHT22;684;48.342;10.096;2024-02-23T04:22:06;6.80;21.90
1381;DHT22;684;48.342;10.096;2024-02-23T04:24:34;6.70;22.00
1381;DHT22;684;48.342;10.096;2024-02-23T04:27:02;6.70;21.90
1381;DHT22;684;48.342;10.096;2024-02-23T04:29:29;6.70;21.60
1381;DHT22;684;48.342;10.096;2024-02-23T04:31:57;6.70;21.30
1381;DHT22;684;48.342;10.096;2024-02-23T04:34:24;6.70;21.30
1381;DHT22;684;48.342;10.096;2024-02-23T04:36:51;6.70;21.00
1381;DHT22;684;48.342;10.096;2024-02-23T04:39:18;6.70;20.80
1381;DHT22;684;48.342;10.096;2024-02-23T04:41:44;6.70;21.00
1381;DHT22;684;48.342;10.096;2024-02-23T04:44:12;6.70;20.90
1381;DHT22;684;48.342;10.096;2024-02-23T04:46:39;6.70;20.60
1381;DHT22;684;48.342;10.096;2024-02-23T04:49:06;6.70;20.50
1381;DHT22;684;48.342;10.096;2024-02-23T04:51:33;6.70;20.60
1381;DHT22;684;48.342;10.096;2024-02-23T04:54:00;6.70;20.60
1381;DHT22;684;48.342;10.096;2024-02-23T04:56:26;6.70;20.40
1381;DHT22;684;48.342;10.096;2024-02-23T04:58:53;6.70;20.30
1381;DHT22;684;48.342;10.096;2024-02-23T05:01:21;6.70;20.20
1381;DHT22;684;48.342;10.096;2024-02-23T05:03:48;6.70;20.20
1381;DHT22;684;48.342;10.096;2024-02-23T05:06:15;6.70;20.10
1381;DHT22;684;48.342;10.096;2024-02-23T05:08:41;6.70;20.00
1381;DHT22;684;48.342;10.096;2024-02-23T05:11:07;6.70;20.00
1381;DHT22;684;48.342;10.096;2024-02-23T05:13:34;6.70;20.40
1381;DHT22;684;48.342;10.096;2024-02-23T05:16:02;6.70;19.90
1381;DHT22;684;48.342;10.096;2024-02-23T05:18:30;6.70;19.90
1381;DHT22;684;48.342;10.096;2024-02-23T05:20:57;6.70;19.80
1381;DHT22;684;48.342;10.096;2024-02-23T05:23:24;6.70;19.80
1381;DHT22;684;48.342;10.096;2024-02-23T05:25:50;6.70;19.80
1381;DHT22;684;48.342;10.096;2024-02-23T05:28:17;6.70;19.80
1381;DHT22;684;48.342;10.096;2024-02-23T05:30:44;6.70;19.70
1381;DHT22;684;48.342;10.096;2024-02-23T05:33:10;6.70;19.70
1381;DHT22;684;48.342;10.096;2024-02-23T05:35:38;6.70;19.70
1381;DHT22;684;48.342;10.096;2024-02-23T05:38:05;6.70;19.50
1381;DHT22;684;48.342;10.096;2024-02-23T05:40:32;6.70;19.40
1381;DHT22;684;48.342;10.096;2024-02-23T05:42:59;6.70;19.50
1381;DHT22;684;48.342;10.096;2024-02-23T05:45:25;6.60;19.30
1381;DHT22;684;48.342;10.096;2024-02-23T05:47:52;6.60;19.40
1381;DHT22;684;48.342;10.096;2024-02-23T05:50:19;6.60;19.70
1381;DHT22;684;48.342;10.096;2024-02-23T05:52:47;6.60;20.10
1381;DHT22;684;48.342;10.096;2024-02-23T05:55:14;6.60;19.70
1381;DHT22;684;48.342;10.096;2024-02-23T05:57:41;6.60;19.70
1381;DHT22;684;48.342;10.096;2024-02-23T06:00:08;6.60;19.70
1381;DHT22;684;48.342;10.096;2024-02-23T06:02:35;6.70;19.70
1381;DHT22;684;48.342;10.096;2024-02-23T06:05:02;6.70;19.70
1381;DHT22;684;48.342;10.096;2024-02-23T06:07:29;6.70;19.90
1381;DHT22;684;48.342;10.096;2024-02-23T06:09:58;6.70;20.00
1381;DHT22;684;48.342;10.096;2024-02-23T06:12:24;6.70;20.10
1381;DHT22;684;48.342;10.096;2024-02-23T06:14:52;6.70;20.00
1381;DHT22;684;48.342;10.096;2024-02-23T06:17:21;6.70;20.10
1381;DHT22;684;48.342;10.096;2024-02-23T06:19:48;6.70;20.30
1381;DHT22;684;48.342;10.096;2024-02-23T06:22:16;6.70;20.20
1381;DHT22;684;48.342;10.096;2024-02-23T06:24:46;6.70;20.20
1381;DHT22;684;48.342;10.096;2024-02-23T06:27:14;6.70;20.30
1381;DHT22;684;48.342;10.096;2024-02-23T06:29:41;6.70;20.20
1381;DHT22;684;48.342;10.096;2024-02-23T06:32:08;6.70;19.90
1381;DHT22;684;48.342;10.096;2024-02-23T06:34:34;6.70;19.90
1381;DHT22;684;48.342;10.096;2024-02-23T06:37:01;6.70;20.00
1381;DHT22;684;48.342;10.096;2024-02-23T06:39:28;6.60;20.10
1381;DHT22;684;48.342;10.096;2024-02-23T06:41:55;6.60;20.00
1381;DHT22;684;48.342;10.096;2024-02-23T06:44:24;6.70;20.00
1381;DHT22;684;48.342;10.096;2024-02-23T06:46:51;6.70;20.00
1381;DHT22;684;48.342;10.096;2024-02-23T06:49:17;6.60;19.80
1381;DHT22;684;48.342;10.096;2024-02-23T06:51:44;6.60;19.70
1381;DHT22;684;48.342;10.096;2024-02-23T06:54:11;6.70;19.40
1381;DHT22;684;48.342;10.096;2024-02-23T06:56:38;6.70;19.30
1381;DHT22;684;48.342;10.096;2024-02-23T06:59:05;6.70;19.40
1381;DHT22;684;48.342;10.096;2024-02-23T07:01:33;6.70;19.60
1381;DHT22;684;48.342;10.096;2024-02-23T07:04:01;6.60;19.70
1381;DHT22;684;48.342;10.096;2024-02-23T07:06:28;6.70;19.80
1381;DHT22;684;48.342;10.096;2024-02-23T07:08:56;6.70;19.60
1381;DHT22;684;48.342;10.096;2024-02-23T07:11:23;6.70;19.40
1381;DHT22;684;48.342;10.096;2024-02-23T07:13:50;6.60;19.70
1381;DHT22;684;48.342;10.096;2024-02-23T07:16:17;6.60;19.70
1381;DHT22;684;48.342;10.096;2024-02-23T07:18:45;6.60;19.80
1381;DHT22;684;48.342;10.096;2024-02-23T07:21:12;6.60;19.60
1381;DHT22;684;48.342;10.096;2024-02-23T07:23:40;6.60;19.50
1381;DHT22;684;48.342;10.096;2024-02-23T07:26:06;6.60;19.40
1381;DHT22;684;48.342;10.096;2024-02-23T07:28:33;6.70;19.30
1381;DHT22;684;48.342;10.096;2024-02-23T07:31:00;6.70;19.20
1381;DHT22;684;48.342;10.096;2024-02-23T07:33:27;6.70;19.10
1381;DHT22;684;48.342;10.096;2024-02-23T07:35:55;6.80;18.80
1381;DHT22;684;48.342;10.096;2024-02-23T07:38:23;6.80;18.60
1381;DHT22;684;48.342;10.096;2024-02-23T07:40:50;6.90;18.30
1381;DHT22;684;48.342;10.096;2024-02-23T07:43:16;6.90;18.40
1381;DHT22;684;48.342;10.096;2024-02-23T07:45:43;6.90;18.30
1381;DHT22;684;48.342;10.096;2024-02-23T07:48:10;6.90;18.40
1381;DHT22;684;48.342;10.096;2024-02-23T07:50:37;6.90;18.20
1381;DHT22;684;48.342;10.096;2024-02-23T07:53:05;7.00;18.00
1381;DHT22;684;48.342;10.096;2024-02-23T07:55:32;7.10;17.80
1381;DHT22;684;48.342;10.096;2024-02-23T07:57:58;7.10;17.70
1381;DHT22;684;48.342;10.096;2024-02-23T08:00:27;7.10;18.00
1381;DHT22;684;48.342;10.096;2024-02-23T08:02:53;7.10;18.00
1381;DHT22;684;48.342;10.096;2024-02-23T08:05:22;7.10;18.00
1381;DHT22;684;48.342;10.096;2024-02-23T08:07:49;7.10;18.00
1381;DHT22;684;48.342;10.096;2024-02-23T08:10:17;7.10;18.20
1381;DHT22;684;48.342;10.096;2024-02-23T08:12:43;7.10;17.90
1381;DHT22;684;48.342;10.096;2024-02-23T08:15:10;7.10;18.00
1381;DHT22;684;48.342;10.096;2024-02-23T08:17:37;7.10;18.10
1381;DHT22;684;48.342;10.096;2024-02-23T08:20:04;7.10;18.20
1381;DHT22;684;48.342;10.096;2024-02-23T08:22:31;7.10;18.00
1381;DHT22;684;48.342;10.096;2024-02-23T08:24:58;7.10;17.60
1381;DHT22;684;48.342;10.096;2024-02-23T08:27:26;7.10;17.50
1381;DHT22;684;48.342;10.096;2024-02-23T08:29:53;7.10;17.50
1381;DHT22;684;48.342;10.096;2024-02-23T08:32:20;7.10;17.40
1381;DHT22;684;48.342;10.096;2024-02-23T08:34:46;7.10;17.60
1381;DHT22;684;48.342;10.096;2024-02-23T08:37:13;7.10;17.40
1381;DHT22;684;48.342;10.096;2024-02-23T08:39:40;7.10;17.50
1381;DHT22;684;48.342;10.096;2024-02-23T08:42:07;7.20;17.40
1381;DHT22;684;48.342;10.096;2024-02-23T08:44:35;7.20;17.10
1381;DHT22;684;48.342;10.096;2024-02-23T08:47:04;7.20;17.10
1381;DHT22;684;48.342;10.096;2024-02-23T08:49:31;7.20;17.10
1381;DHT22;684;48.342;10.096;2024-02-23T08:51:58;7.20;17.20
1381;DHT22;684;48.342;10.096;2024-02-23T08:54:25;7.30;17.10
1381;DHT22;684;48.342;10.096;2024-02-23T08:56:52;7.30;16.80
1381;DHT22;684;48.342;10.096;2024-02-23T08:59:18;7.30;16.80
1381;DHT22;684;48.342;10.096;2024-02-23T09:01:47;7.40;16.70
1381;DHT22;684;48.342;10.096;2024-02-23T09:04:13;7.40;16.40
1381;DHT22;684;48.342;10.096;2024-02-23T09:06:40;7.40;16.20
1381;DHT22;684;48.342;10.096;2024-02-23T09:09:07;7.40;16.10
1381;DHT22;684;48.342;10.096;2024-02-23T09:11:35;7.40;16.00
1381;DHT22;684;48.342;10.096;2024-02-23T09:14:01;7.40;16.00
1381;DHT22;684;48.342;10.096;2024-02-23T09:16:28;7.40;16.00
1381;DHT22;684;48.342;10.096;2024-02-23T09:18:56;7.40;15.90
1381;DHT22;684;48.342;10.096;2024-02-23T09:21:23;7.40;15.50
1381;DHT22;684;48.342;10.096;2024-02-23T09:23:50;7.50;15.20
1381;DHT22;684;48.342;10.096;2024-02-23T09:26:16;7.50;15.00
1381;DHT22;684;48.342;10.096;2024-02-23T09:28:43;7.50;14.70
1381;DHT22;684;48.342;10.096;2024-02-23T09:31:10;7.50;14.70
1381;DHT22;684;48.342;10.096;2024-02-23T09:33:37;7.50;14.00
1381;DHT22;684;48.342;10.096;2024-02-23T09:36:06;7.40;13.80
1381;DHT22;684;48.342;10.096;2024-02-23T09:38:32;7.40;14.00
1381;DHT22;684;48.342;10.096;2024-02-23T09:40:59;7.40;14.10
1381;DHT22;684;48.342;10.096;2024-02-23T09:43:29;7.40;13.90
1381;DHT22;684;48.342;10.096;2024-02-23T09:45:57;7.40;14.20
1381;DHT22;684;48.342;10.096;2024-02-23T09:48:24;7.40;13.70
1381;DHT22;684;48.342;10.096;2024-02-23T09:50:52;7.50;13.30
1381;DHT22;684;48.342;10.096;2024-02-23T09:53:21;7.40;13.20
1381;DHT22;684;48.342;10.096;2024-02-23T09:55:50;7.40;13.10
1381;DHT22;684;48.342;10.096;2024-02-23T09:58:18;7.40;13.30
1381;DHT22;684;48.342;10.096;2024-02-23T10:00:46;7.40;13.20
1381;DHT22;684;48.342;10.096;2024-02-23T10:03:13;7.40;13.40
1381;DHT22;684;48.342;10.096;2024-02-23T10:05:40;7.40;12.40
1381;DHT22;684;48.342;10.096;2024-02-23T10:08:08;7.40;12.20
1381;DHT22;684;48.342;10.096;2024-02-23T10:10:37;7.40;12.20
1381;DHT22;684;48.342;10.096;2024-02-23T10:13:04;7.40;12.20
1381;DHT22;684;48.342;10.096;2024-02-23T10:15:30;7.40;12.40
1381;DHT22;684;48.342;10.096;2024-02-23T10:17:58;7.40;12.10
1381;DHT22;684;48.342;10.096;2024-02-23T10:20:25;7.40;12.00
1381;DHT22;684;48.342;10.096;2024-02-23T10:22:51;7.50;11.80
1381;DHT22;684;48.342;10.096;2024-02-23T10:25:19;7.40;11.90
1381;DHT22;684;48.342;10.096;2024-02-23T10:27:47;7.40;11.80
1381;DHT22;684;48.342;10.096;2024-02-23T10:30:14;7.50;11.30
1381;DHT22;684;48.342;10.096;2024-02-23T10:32:41;7.50;11.20
1381;DHT22;684;48.342;10.096;2024-02-23T10:35:11;7.50;11.40
1381;DHT22;684;48.342;10.096;2024-02-23T10:37:42;7.50;11.70
1381;DHT22;684;48.342;10.096;2024-02-23T10:40:11;7.50;11.00
1381;DHT22;684;48.342;10.096;2024-02-23T10:42:39;7.50;11.20
1381;DHT22;684;48.342;10.096;2024-02-23T10:45:09;7.50;11.40
1381;DHT22;684;48.342;10.096;2024-02-23T10:47:36;7.50;11.30
1381;DHT22;684;48.342;10.096;2024-02-23T10:50:04;7.50;11.30
1381;DHT22;684;48.342;10.096;2024-02-23T10:52:32;7.50;11.10
1381;DHT22;684;48.342;10.096;2024-02-23T10:55:00;7.60;10.90
1381;DHT22;684;48.342;10.096;2024-02-23T10:57:30;7.60;10.40
1381;DHT22;684;48.342;10.096;2024-02-23T10:59:57;7.60;10.60
1381;DHT22;684;48.342;10.096;2024-02-23T11:02:28;7.60;11.00
1381;DHT22;684;48.342;10.096;2024-02-23T11:04:59;7.60;11.10
1381;DHT22;684;48.342;10.096;2024-02-23T11:07:29;7.60;10.70
1381;DHT22;684;48.342;10.096;2024-02-23T11:10:00;7.70;10.80
1381;DHT22;684;48.342;10.096;2024-02-23T11:12:29;7.70;10.70
1381;DHT22;684;48.342;10.096;2024-02-23T11:14:57;7.70;10.50
1381;DHT22;684;48.342;10.096;2024-02-23T11:17:28;7.70;10.30
1381;DHT22;684;48.342;10.096;2024-02-23T11:19:56;7.80;10.80
1381;DHT22;684;48.342;10.096;2024-02-23T11:22:27;7.80;10.70
1381;DHT22;684;48.342;10.096;2024-02-23T11:24:59;7.80;10.90
1381;DHT22;684;48.342;10.096;2024-02-23T11:27:30;7.80;10.40
1381;DHT22;684;48.342;10.096;2024-02-23T11:30:02;7.80;10.80
1381;DHT22;684;48.342;10.096;2024-02-23T11:32:39;7.80;11.20
1381;DHT22;684;48.342;10.096;2024-02-23T11:35:07;7.80;11.00
1381;DHT22;684;48.342;10.096;2024-02-23T11:37:47;7.90;11.00
1381;DHT22;684;48.342;10.096;2024-02-23T11:40:14;7.90;10.80
1381;DHT22;684;48.342;10.096;2024-02-23T11:42:42;7.90;11.00
1381;DHT22;684;48.342;10.096;2024-02-23T11:45:09;7.90;11.20
1381;DHT22;684;48.342;10.096;2024-02-23T11:47:38;7.90;11.30
1381;DHT22;684;48.342;10.096;2024-02-23T11:50:08;8.00;11.00
1381;DHT22;684;48.342;10.096;2024-02-23T11:52:35;8.00;11.00
1381;DHT22;684;48.342;10.096;2024-02-23T11:55:03;8.00;10.80
1381;DHT22;684;48.342;10.096;2024-02-23T11:57:31;8.10;10.70
1381;DHT22;684;48.342;10.096;2024-02-23T11:59:57;8.10;10.60
1381;DHT22;684;48.342;10.096;2024-02-23T12:02:24;8.10;10.60
1381;DHT22;684;48.342;10.096;2024-02-23T12:04:52;8.10;10.20
1381;DHT22;684;48.342;10.096;2024-02-23T12:07:19;8.10;10.60
1381;DHT22;684;48.342;10.096;2024-02-23T12:09:47;8.10;10.80
1381;DHT22;684;48.342;10.096;2024-02-23T12:12:14;8.10;10.70
1381;DHT22;684;48.342;10.096;2024-02-23T12:14:40;8.10;10.60
1381;DHT22;684;48.342;10.096;2024-02-23T12:17:08;8.20;10.50
1381;DHT22;684;48.342;10.096;2024-02-23T12:19:37;8.20;10.50
1381;DHT22;684;48.342;10.096;2024-02-23T12:22:06;8.20;10.20
1381;DHT22;684;48.342;10.096;2024-02-23T12:24:34;8.20;10.40
1381;DHT22;684;48.342;10.096;2024-02-23T12:27:01;8.20;10.60
1381;DHT22;684;48.342;10.096;2024-02-23T12:29:28;8.20;10.70
1381;DHT22;684;48.342;10.096;2024-02-23T12:32:03;8.30;10.60
1381;DHT22;684;48.342;10.096;2024-02-23T12:34:29;8.30;10.60
1381;DHT22;684;48.342;10.096;2024-02-23T12:36:56;8.40;9.80
1381;DHT22;684;48.342;10.096;2024-02-23T12:39:25;8.40;10.20
1381;DHT22;684;48.342;10.096;2024-02-23T12:41:52;8.40;10.40
1381;DHT22;684;48.342;10.096;2024-02-23T12:44:19;8.40;10.40
1381;DHT22;684;48.342;10.096;2024-02-23T12:46:46;8.50;10.40
1381;DHT22;684;48.342;10.096;2024-02-23T12:49:13;8.50;10.50
1381;DHT22;684;48.342;10.096;2024-02-23T12:51:41;8.50;10.80
1381;DHT22;684;48.342;10.096;2024-02-23T12:54:08;8.50;10.80
1381;DHT22;684;48.342;10.096;2024-02-23T12:56:36;8.50;10.50
1381;DHT22;684;48.342;10.096;2024-02-23T12:59:03;8.40;10.40
1381;DHT22;684;48.342;10.096;2024-02-23T13:01:30;8.40;10.80
1381;DHT22;684;48.342;10.096;2024-02-23T13:03:59;8.30;10.90
1381;DHT22;684;48.342;10.096;2024-02-23T13:06:26;8.30;11.20
1381;DHT22;684;48.342;10.096;2024-02-23T13:08:53;8.30;11.10
1381;DHT22;684;48.342;10.096;2024-02-23T13:11:20;8.30;11.30
1381;DHT22;684;48.342;10.096;2024-02-23T13:13:48;8.30;11.50
1381;DHT22;684;48.342;10.096;2024-02-23T13:16:15;8.30;11.80
1381;DHT22;684;48.342;10.096;2024-02-23T13:18:42;8.30;12.10
1381;DHT22;684;48.342;10.096;2024-02-23T13:21:09;8.30;12.20
1381;DHT22;684;48.342;10.096;2024-02-23T13:23:36;8.40;12.10
1381;DHT22;684;48.342;10.096;2024-02-23T13:26:03;8.40;12.50
1381;DHT22;684;48.342;10.096;2024-02-23T13:28:30;8.40;11.80
1381;DHT22;684;48.342;10.096;2024-02-23T13:30:58;8.40;11.90
1381;DHT22;684;48.342;10.096;2024-02-23T13:33:25;8.50;11.70
1381;DHT22;684;48.342;10.096;2024-02-23T13:35:52;8.50;11.70
1381;DHT22;684;48.342;10.096;2024-02-23T13:38:19;8.50;11.90
1381;DHT22;684;48.342;10.096;2024-02-23T13:40:46;8.50;12.10
1381;DHT22;684;48.342;10.096;2024-02-23T13:43:14;8.60;11.60
1381;DHT22;684;48.342;10.096;2024-02-23T13:45:49;8.60;11.60
1381;DHT22;684;48.342;10.096;2024-02-23T13:48:18;8.70;11.20
1381;DHT22;684;48.342;10.096;2024-02-23T13:50:45;8.70;11.40
1381;DHT22;684;48.342;10.096;2024-02-23T13:53:12;8.70;11.20
1381;DHT22;684;48.342;10.096;2024-02-23T13:55:40;8.70;10.70
1381;DHT22;684;48.342;10.096;2024-02-23T13:58:08;8.80;10.80
1381;DHT22;684;48.342;10.096;2024-02-23T14:00:34;8.80;10.80
1381;DHT22;684;48.342;10.096;2024-02-23T14:03:01;8.80;10.80
1381;DHT22;684;48.342;10.096;2024-02-23T14:05:29;8.80;10.90
1381;DHT22;684;48.342;10.096;2024-02-23T14:07:56;8.80;9.80
1381;DHT22;684;48.342;10.096;2024-02-23T14:10:23;8.80;9.90
1381;DHT22;684;48.342;10.096;2024-02-23T14:12:50;8.80;9.80
1381;DHT22;684;48.342;10.096;2024-02-23T14:15:17;8.80;9.90
1381;DHT22;684;48.342;10.096;2024-02-23T14:17:44;8.70;9.50
1381;DHT22;684;48.342;10.096;2024-02-23T14:20:11;8.70;9.40
1381;DHT22;684;48.342;10.096;2024-02-23T14:22:39;8.60;9.40
1381;DHT22;684;48.342;10.096;2024-02-23T14:25:06;8.50;9.70
1381;DHT22;684;48.342;10.096;2024-02-23T14:27:33;8.50;9.70
1381;DHT22;684;48.342;10.096;2024-02-23T14:30:00;8.50;9.60
1381;DHT22;684;48.342;10.096;2024-02-23T14:32:27;8.50;9.80
1381;DHT22;684;48.342;10.096;2024-02-23T14:34:54;8.40;10.00
1381;DHT22;684;48.342;10.096;2024-02-23T14:37:22;8.50;10.40
1381;DHT22;684;48.342;10.096;2024-02-23T14:39:51;8.50;10.00
1381;DHT22;684;48.342;10.096;2024-02-23T14:42:18;8.50;10.10
1381;DHT22;684;48.342;10.096;2024-02-23T14:44:44;8.50;10.40
1381;DHT22;684;48.342;10.096;2024-02-23T14:47:11;8.40;10.20
1381;DHT22;684;48.342;10.096;2024-02-23T14:49:39;8.40;10.30
1381;DHT22;684;48.342;10.096;2024-02-23T14:52:06;8.40;10.50
1381;DHT22;684;48.342;10.096;2024-02-23T14:54:32;8.30;11.00
1381;DHT22;684;48.342;10.096;2024-02-23T14:57:01;8.30;10.90
1381;DHT22;684;48.342;10.096;2024-02-23T14:59:27;8.30;11.00
1381;DHT22;684;48.342;10.096;2024-02-23T15:01:54;8.20;10.90
1381;DHT22;684;48.342;10.096;2024-02-23T15:04:21;8.20;10.40
1381;DHT22;684;48.342;10.096;2024-02-23T15:06:48;8.20;10.00
1381;DHT22;684;48.342;10.096;2024-02-23T15:09:14;8.20;9.00
1381;DHT22;684;48.342;10.096;2024-02-23T15:11:41;8.20;8.60
1381;DHT22;684;48.342;10.096;2024-02-23T15:14:10;8.10;8.30
1381;DHT22;684;48.342;10.096;2024-02-23T15:16:36;8.10;7.80
1381;DHT22;684;48.342;10.096;2024-02-23T15:19:03;8.10;7.30
1381;DHT22;684;48.342;10.096;2024-02-23T15:21:30;8.10;7.40
1381;DHT22;684;48.342;10.096;2024-02-23T15:23:57;8.00;7.20
1381;DHT22;684;48.342;10.096;2024-02-23T15:26:24;8.00;7.60
1381;DHT22;684;48.342;10.096;2024-02-23T15:28:51;8.00;7.40
1381;DHT22;684;48.342;10.096;2024-02-23T15:31:20;7.90;7.50
1381;DHT22;684;48.342;10.096;2024-02-23T15:33:47;7.90;8.00
1381;DHT22;684;48.342;10.096;2024-02-23T15:36:14;7.90;7.30
1381;DHT22;684;48.342;10.096;2024-02-23T15:38:41;7.90;7.70
1381;DHT22;684;48.342;10.096;2024-02-23T15:41:08;7.90;8.00
1381;DHT22;684;48.342;10.096;2024-02-23T15:43:34;7.80;8.00
1381;DHT22;684;48.342;10.096;2024-02-23T15:46:01;7.80;8.40
1381;DHT22;684;48.342;10.096;2024-02-23T15:48:29;7.80;8.50
1381;DHT22;684;48.342;10.096;2024-02-23T15:50:56;7.70;8.80
1381;DHT22;684;48.342;10.096;2024-02-23T15:53:23;7.70;9.10
1381;DHT22;684;48.342;10.096;2024-02-23T15:55:50;7.70;9.30
1381;DHT22;684;48.342;10.096;2024-02-23T15:58:17;7.70;9.00
1381;DHT22;684;48.342;10.096;2024-02-23T16:00:45;7.70;9.30
1381;DHT22;684;48.342;10.096;2024-02-23T16:03:12;7.70;9.50
1381;DHT22;684;48.342;10.096;2024-02-23T16:05:41;7.70;9.70
1381;DHT22;684;48.342;10.096;2024-02-23T16:08:08;7.70;10.10
1381;DHT22;684;48.342;10.096;2024-02-23T16:10:35;7.60;10.20
1381;DHT22;684;48.342;10.096;2024-02-23T16:13:01;7.60;10.20
1381;DHT22;684;48.342;10.096;2024-02-23T16:15:29;7.50;10.30
1381;DHT22;684;48.342;10.096;2024-02-23T16:17:56;7.50;10.60
1381;DHT22;684;48.342;10.096;2024-02-23T16:20:23;7.40;10.60